sensor_id;sensor_type;location;lat;lon;timestamp;pressure;altitude;pressure_sealevel;temperature;humidity
54854;BME280;40747;49.480;8.658;2023-02-03T00:00:35;101586.94;;;6.49;100.00
54854;BME280;40747;49.480;8.658;2023-02-03T00:03:01;101586.03;;;6.44;100.00
54854;BME280;40747;49.480;8.658;2023-02-03T00:05:27;101568.66;;;6.58;100.00
54854;BME280;40747;49.480;8.658;2023-02-03T00:07:53;101577.25;;;6.38;100.00
54854;BME280;40747;49.480;8.658;2023-02-03T00:10:19;101578.91;;;6.27;100.00
54854;BME280;40747;49.480;8.658;2023-02-03T00:12:47;101587.88;;;6.60;100.00
54854;BME280;40747;49.480;8.658;2023-02-03T00:15:13;101588.53;;;6.28;100.00
54854;BME280;40747;49.480;8.658;2023-02-03T00:17:39;101578.06;;;6.28;100.00
54854;BME280;40747;49.480;8.658;2023-02-03T00:20:04;101573.88;;;6.53;100.00
54854;BME280;40747;49.480;8.658;2023-02-03T00:22:30;101562.31;;;6.25;100.00
54854;BME280;40747;49.480;8.658;2023-02-03T00:24:55;101567.59;;;6.30;100.00
54854;BME280;40747;49.480;8.658;2023-02-03T00:27:21;101562.50;;;6.53;100.00
54854;BME280;40747;49.480;8.658;2023-02-03T00:29:46;101568.56;;;6.44;100.00
54854;BME280;40747;49.480;8.658;2023-02-03T00:32:11;101572.91;;;6.40;100.00
54854;BME280;40747;49.480;8.658;2023-02-03T00:34:36;101575.69;;;6.65;100.00
54854;BME280;40747;49.480;8.658;2023-02-03T00:37:02;101582.41;;;6.28;100.00
54854;BME280;40747;49.480;8.658;2023-02-03T00:39:27;101573.69;;;6.30;100.00
54854;BME280;40747;49.480;8.658;2023-02-03T00:41:52;101560.78;;;6.55;100.00
54854;BME280;40747;49.480;8.658;2023-02-03T00:44:17;101550.25;;;6.46;100.00
54854;BME280;40747;49.480;8.658;2023-02-03T00:46:43;101548.41;;;6.29;100.00
54854;BME280;40747;49.480;8.658;2023-02-03T00:49:08;101545.91;;;6.49;100.00
54854;BME280;40747;49.480;8.658;2023-02-03T00:51:33;101553.72;;;6.37;100.00
54854;BME280;40747;49.480;8.658;2023-02-03T00:53:59;101552.75;;;6.26;100.00
54854;BME280;40747;49.480;8.658;2023-02-03T00:56:24;101539.72;;;6.36;100.00
54854;BME280;40747;49.480;8.658;2023-02-03T00:58:50;101547.56;;;6.33;100.00
54854;BME280;40747;49.480;8.658;2023-02-03T01:01:15;101545.59;;;6.04;100.00
54854;BME280;40747;49.480;8.658;2023-02-03T01:03:40;101560.66;;;6.36;100.00
54854;BME280;40747;49.480;8.658;2023-02-03T01:06:17;101556.38;;;6.49;100.00
54854;BME280;40747;49.480;8.658;2023-02-03T01:08:43;101569.41;;;6.43;100.00
54854;BME280;40747;49.480;8.658;2023-02-03T01:11:10;101559.94;;;6.56;100.00
54854;BME280;40747;49.480;8.658;2023-02-03T01:13:36;101561.59;;;6.48;100.00
54854;BME280;40747;49.480;8.658;2023-02-03T01:16:05;101569.47;;;6.49;100.00
54854;BME280;40747;49.480;8.658;2023-02-03T01:18:30;101568.72;;;6.70;100.00
54854;BME280;40747;49.480;8.658;2023-02-03T01:20:56;101556.28;;;6.35;100.00
54854;BME280;40747;49.480;8.658;2023-02-03T01:23:21;101561.56;;;6.43;100.00
54854;BME280;40747;49.480;8.658;2023-02-03T01:25:46;101559.97;;;6.68;100.00
54854;BME280;40747;49.480;8.658;2023-02-03T01:28:12;101531.19;;;6.67;100.00
54854;BME280;40747;49.480;8.658;2023-02-03T01:30:37;101520.63;;;6.53;100.00
54854;BME280;40747;49.480;8.658;2023-02-03T01:33:03;101507.63;;;6.75;100.00
54854;BME280;40747;49.480;8.658;2023-02-03T01:35:28;101509.22;;;6.38;100.00
54854;BME280;40747;49.480;8.658;2023-02-03T01:37:53;101489.97;;;6.29;100.00
54854;BME280;40747;49.480;8.658;2023-02-03T01:40:19;101476.16;;;6.58;100.00
54854;BME280;40747;49.480;8.658;2023-02-03T01:42:44;101485.75;;;6.52;100.00
54854;BME280;40747;49.480;8.658;2023-02-03T01:45:10;101465.56;;;6.31;100.00
54854;BME280;40747;49.480;8.658;2023-02-03T01:47:47;101480.53;;;6.60;100.00
54854;BME280;40747;49.480;8.658;2023-02-03T01:50:18;101499.72;;;6.58;100.00
54854;BME280;40747;49.480;8.658;2023-02-03T01:52:48;101500.50;;;6.44;100.00
54854;BME280;40747;49.480;8.658;2023-02-03T01:55:19;101493.66;;;6.69;100.00
54854;BME280;40747;49.480;8.658;2023-02-03T01:57:57;101459.56;;;6.57;100.00
54854;BME280;40747;49.480;8.658;2023-02-03T02:00:25;101465.72;;;6.64;100.00
54854;BME280;40747;49.480;8.658;2023-02-03T02:02:51;101494.53;;;6.75;100.00
54854;BME280;40747;49.480;8.658;2023-02-03T02:05:52;101500.69;;;6.77;100.00
54854;BME280;40747;49.480;8.658;2023-02-03T02:08:19;101486.66;;;6.68;100.00
54854;BME280;40747;49.480;8.658;2023-02-03T02:10:47;101471.88;;;6.80;100.00
54854;BME280;40747;49.480;8.658;2023-02-03T02:13:13;101475.34;;;6.76;100.00
54854;BME280;40747;49.480;8.658;2023-02-03T02:18:53;101472.75;;;6.85;100.00
54854;BME280;40747;49.480;8.658;2023-02-03T02:21:45;101475.34;;;6.80;100.00
54854;BME280;40747;49.480;8.658;2023-02-03T02:26:59;101453.50;;;6.72;100.00
54854;BME280;40747;49.480;8.658;2023-02-03T02:35:31;101472.81;;;6.99;100.00
54854;BME280;40747;49.480;8.658;2023-02-03T02:40:52;101476.28;;;6.90;100.00
54854;BME280;40747;49.480;8.658;2023-02-03T02:43:23;101457.06;;;6.94;100.00
54854;BME280;40747;49.480;8.658;2023-02-03T02:46:01;101447.44;;;6.81;100.00
54854;BME280;40747;49.480;8.658;2023-02-03T02:48:35;101454.44;;;6.88;100.00
54854;BME280;40747;49.480;8.658;2023-02-03T02:51:04;101434.31;;;6.73;100.00
54854;BME280;40747;49.480;8.658;2023-02-03T02:53:37;101464.88;;;6.79;100.00
54854;BME280;40747;49.480;8.658;2023-02-03T02:56:05;101469.28;;;6.84;100.00
54854;BME280;40747;49.480;8.658;2023-02-03T02:58:34;101481.50;;;6.85;100.00
54854;BME280;40747;49.480;8.658;2023-02-03T03:01:01;101483.28;;;6.96;100.00
54854;BME280;40747;49.480;8.658;2023-02-03T03:03:26;101492.00;;;6.98;100.00
54854;BME280;40747;49.480;8.658;2023-02-03T03:05:59;101475.41;;;6.94;100.00
54854;BME280;40747;49.480;8.658;2023-02-03T03:08:33;101489.41;;;7.05;100.00
54854;BME280;40747;49.480;8.658;2023-02-03T03:11:01;101491.13;;;7.02;100.00
54854;BME280;40747;49.480;8.658;2023-02-03T03:13:31;101505.16;;;7.09;100.00
54854;BME280;40747;49.480;8.658;2023-02-03T03:15:58;101506.88;;;7.07;100.00
54854;BME280;40747;49.480;8.658;2023-02-03T03:18:33;101520.00;;;7.14;100.00
54854;BME280;40747;49.480;8.658;2023-02-03T03:21:02;101532.22;;;7.09;100.00
54854;BME280;40747;49.480;8.658;2023-02-03T03:23:38;101528.69;;;7.05;100.00
54854;BME280;40747;49.480;8.658;2023-02-03T03:26:34;101533.94;;;7.05;100.00
54854;BME280;40747;49.480;8.658;2023-02-03T03:29:08;101547.06;;;7.12;100.00
54854;BME280;40747;49.480;8.658;2023-02-03T03:31:35;101526.03;;;6.90;100.00
54854;BME280;40747;49.480;8.658;2023-02-03T03:34:00;101543.56;;;7.03;100.00
54854;BME280;40747;49.480;8.658;2023-02-03T03:36:32;101536.56;;;7.05;100.00
54854;BME280;40747;49.480;8.658;2023-02-03T03:39:23;101546.19;;;7.03;100.00
54854;BME280;40747;49.480;8.658;2023-02-03T03:42:29;101539.09;;;6.84;100.00
54854;BME280;40747;49.480;8.658;2023-02-03T03:50:03;101522.50;;;6.74;100.00
54854;BME280;40747;49.480;8.658;2023-02-03T03:52:32;101502.34;;;6.61;100.00
54854;BME280;40747;49.480;8.658;2023-02-03T03:55:00;101518.09;;;6.68;100.00
54854;BME280;40747;49.480;8.658;2023-02-03T03:57:32;101511.13;;;6.69;100.00
54854;BME280;40747;49.480;8.658;2023-02-03T04:00:03;101500.63;;;6.66;100.00
54854;BME280;40747;49.480;8.658;2023-02-03T04:02:31;101512.00;;;6.76;100.00
54854;BME280;40747;49.480;8.658;2023-02-03T04:04:59;101502.38;;;6.67;100.00
54854;BME280;40747;49.480;8.658;2023-02-03T04:07:42;101501.50;;;6.66;100.00
54854;BME280;40747;49.480;8.658;2023-02-03T04:10:25;101509.34;;;6.63;100.00
54854;BME280;40747;49.480;8.658;2023-02-03T04:12:54;101502.34;;;6.56;100.00
54854;BME280;40747;49.480;8.658;2023-02-03T04:15:19;101494.50;;;6.62;100.00
54854;BME280;40747;49.480;8.658;2023-02-03T04:17:44;101492.72;;;6.55;100.00
54854;BME280;40747;49.480;8.658;2023-02-03T04:20:10;101508.41;;;6.49;100.00
54854;BME280;40747;49.480;8.658;2023-02-03T04:22:35;101464.66;;;6.21;100.00
54854;BME280;40747;49.480;8.658;2023-02-03T04:25:01;101498.88;;;6.59;100.00
54854;BME280;40747;49.480;8.658;2023-02-03T04:27:26;101487.47;;;6.50;100.00
54854;BME280;40747;49.480;8.658;2023-02-03T04:29:52;101485.78;;;6.59;100.00
54854;BME280;40747;49.480;8.658;2023-02-03T04:32:17;101484.91;;;6.66;100.00
54854;BME280;40747;49.480;8.658;2023-02-03T04:34:43;101486.69;;;6.71;100.00
54854;BME280;40747;49.480;8.658;2023-02-03T04:37:08;101487.53;;;6.67;100.00
54854;BME280;40747;49.480;8.658;2023-02-03T04:39:34;101498.00;;;6.67;100.00
54854;BME280;40747;49.480;8.658;2023-02-03T04:41:59;101504.97;;;6.56;100.00
54854;BME280;40747;49.480;8.658;2023-02-03T04:44:24;101503.19;;;6.58;100.00
54854;BME280;40747;49.480;8.658;2023-02-03T04:46:49;101508.47;;;6.63;100.00
54854;BME280;40747;49.480;8.658;2023-02-03T04:49:15;101511.09;;;6.64;100.00
54854;BME280;40747;49.480;8.658;2023-02-03T04:51:41;101516.34;;;6.69;100.00
54854;BME280;40747;49.480;8.658;2023-02-03T04:54:08;101509.41;;;6.74;100.00
54854;BME280;40747;49.480;8.658;2023-02-03T04:56:33;101503.28;;;6.70;100.00
54854;BME280;40747;49.480;8.658;2023-02-03T04:58:59;101498.06;;;6.80;100.00
54854;BME280;40747;49.480;8.658;2023-02-03T05:01:24;101492.81;;;6.77;100.00
54854;BME280;40747;49.480;8.658;2023-02-03T05:03:49;101488.47;;;6.85;100.00
54854;BME280;40747;49.480;8.658;2023-02-03T05:06:14;101500.69;;;6.80;100.00
54854;BME280;40747;49.480;8.658;2023-02-03T05:08:40;101496.38;;;6.89;100.00
54854;BME280;40747;49.480;8.658;2023-02-03T05:11:05;101509.44;;;6.83;100.00
54854;BME280;40747;49.480;8.658;2023-02-03T05:13:30;101498.09;;;6.86;100.00
54854;BME280;40747;49.480;8.658;2023-02-03T05:15:56;101492.81;;;6.78;100.00
54854;BME280;40747;49.480;8.658;2023-02-03T05:18:21;101501.56;;;6.82;100.00
54854;BME280;40747;49.480;8.658;2023-02-03T05:20:46;101501.56;;;6.82;100.00
54854;BME280;40747;49.480;8.658;2023-02-03T05:23:12;101519.94;;;6.89;100.00
54854;BME280;40747;49.480;8.658;2023-02-03T05:25:37;101505.06;;;6.81;100.00
54854;BME280;40747;49.480;8.658;2023-02-03T05:28:02;101502.41;;;6.75;100.00
54854;BME280;40747;49.480;8.658;2023-02-03T05:30:28;101501.56;;;6.83;100.00
54854;BME280;40747;49.480;8.658;2023-02-03T05:32:53;101501.53;;;6.77;100.00
54854;BME280;40747;49.480;8.658;2023-02-03T05:35:18;101505.91;;;6.83;100.00
54854;BME280;40747;49.480;8.658;2023-02-03T05:37:44;101516.38;;;6.83;100.00
54854;BME280;40747;49.480;8.658;2023-02-03T05:40:11;101509.47;;;6.88;100.00
54854;BME280;40747;49.480;8.658;2023-02-03T05:42:55;101510.31;;;6.90;100.00
54854;BME280;40747;49.480;8.658;2023-02-03T05:45:21;101512.97;;;6.98;100.00
54854;BME280;40747;49.480;8.658;2023-02-03T05:47:46;101512.94;;;6.92;100.00
54854;BME280;40747;49.480;8.658;2023-02-03T05:50:11;101485.00;;;6.94;100.00
54854;BME280;40747;49.480;8.658;2023-02-03T05:52:37;101484.06;;;6.78;100.00
54854;BME280;40747;49.480;8.658;2023-02-03T05:55:02;101502.44;;;6.82;100.00
54854;BME280;40747;49.480;8.658;2023-02-03T05:57:27;101470.13;;;6.79;100.00
54854;BME280;40747;49.480;8.658;2023-02-03T05:59:53;101490.22;;;6.86;100.00
54854;BME280;40747;49.480;8.658;2023-02-03T06:02:18;101491.94;;;6.76;100.00
54854;BME280;40747;49.480;8.658;2023-02-03T06:04:44;101494.56;;;6.79;100.00
54854;BME280;40747;49.480;8.658;2023-02-03T06:07:09;101487.53;;;6.67;100.00
54854;BME280;40747;49.480;8.658;2023-02-03T06:09:34;101472.72;;;6.72;100.00
54854;BME280;40747;49.480;8.658;2023-02-03T06:11:59;101469.25;;;6.78;100.00
54854;BME280;40747;49.480;8.658;2023-02-03T06:14:25;101462.22;;;6.69;100.00
54854;BME280;40747;49.480;8.658;2023-02-03T06:16:52;101463.09;;;6.65;100.00
54854;BME280;40747;49.480;8.658;2023-02-03T06:19:17;101456.09;;;6.64;100.00
54854;BME280;40747;49.480;8.658;2023-02-03T06:21:42;101469.22;;;6.73;100.00
54854;BME280;40747;49.480;8.658;2023-02-03T06:24:09;101465.75;;;6.75;100.00
54854;BME280;40747;49.480;8.658;2023-02-03T06:26:34;101452.66;;;6.76;100.00
54854;BME280;40747;49.480;8.658;2023-02-03T06:28:59;101452.66;;;6.75;100.00
54854;BME280;40747;49.480;8.658;2023-02-03T06:31:24;101450.94;;;6.77;100.00
54854;BME280;40747;49.480;8.658;2023-02-03T06:33:52;101450.94;;;6.77;100.00
54854;BME280;40747;49.480;8.658;2023-02-03T06:36:18;101444.78;;;6.64;100.00
54854;BME280;40747;49.480;8.658;2023-02-03T06:38:43;101442.19;;;6.78;100.00
54854;BME280;40747;49.480;8.658;2023-02-03T06:41:08;101442.16;;;6.68;100.00
54854;BME280;40747;49.480;8.658;2023-02-03T06:43:43;101443.94;;;6.76;100.00
54854;BME280;40747;49.480;8.658;2023-02-03T06:46:08;101448.31;;;6.77;100.00
54854;BME280;40747;49.480;8.658;2023-02-03T06:48:34;101460.44;;;6.61;100.00
54854;BME280;40747;49.480;8.658;2023-02-03T06:50:59;101453.50;;;6.73;100.00
54854;BME280;40747;49.480;8.658;2023-02-03T06:53:25;101468.34;;;6.78;100.00
54854;BME280;40747;49.480;8.658;2023-02-03T06:55:50;101457.84;;;6.62;100.00
54854;BME280;40747;49.480;8.658;2023-02-03T06:58:16;101473.50;;;6.54;100.00
54854;BME280;40747;49.480;8.658;2023-02-03T07:00:42;101467.38;;;6.48;100.00
54854;BME280;40747;49.480;8.658;2023-02-03T07:03:07;101470.00;;;6.48;100.00
54854;BME280;40747;49.480;8.658;2023-02-03T07:05:32;101483.94;;;6.45;100.00
54854;BME280;40747;49.480;8.658;2023-02-03T07:08:00;101490.94;;;6.51;100.00
54854;BME280;40747;49.480;8.658;2023-02-03T07:10:25;101495.31;;;6.49;100.00
54854;BME280;40747;49.480;8.658;2023-02-03T07:12:50;101499.66;;;6.47;100.00
54854;BME280;40747;49.480;8.658;2023-02-03T07:15:16;101499.69;;;6.53;100.00
54854;BME280;40747;49.480;8.658;2023-02-03T07:17:41;101502.38;;;6.64;100.00
54854;BME280;40747;49.480;8.658;2023-02-03T07:20:07;101499.75;;;6.67;100.00
54854;BME280;40747;49.480;8.658;2023-02-03T07:22:32;101506.75;;;6.72;100.00
54854;BME280;40747;49.480;8.658;2023-02-03T07:24:58;101508.53;;;6.81;100.00
54854;BME280;40747;49.480;8.658;2023-02-03T07:27:23;101505.03;;;6.75;100.00
54854;BME280;40747;49.480;8.658;2023-02-03T07:29:49;101512.88;;;6.76;100.00
54854;BME280;40747;49.480;8.658;2023-02-03T07:32:14;101511.13;;;6.73;100.00
54854;BME280;40747;49.480;8.658;2023-02-03T07:34:40;101508.47;;;6.66;100.00
54854;BME280;40747;49.480;8.658;2023-02-03T07:37:05;101517.22;;;6.69;100.00
54854;BME280;40747;49.480;8.658;2023-02-03T07:39:30;101505.00;;;6.67;100.00
54854;BME280;40747;49.480;8.658;2023-02-03T07:41:57;101509.34;;;6.65;100.00
54854;BME280;40747;49.480;8.658;2023-02-03T07:44:22;101523.28;;;6.59;100.00
54854;BME280;40747;49.480;8.658;2023-02-03T07:46:47;101516.34;;;6.69;100.00
54854;BME280;40747;49.480;8.658;2023-02-03T07:49:13;101521.56;;;6.67;100.00
54854;BME280;40747;49.480;8.658;2023-02-03T07:51:42;101529.41;;;6.66;100.00
54854;BME280;40747;49.480;8.658;2023-02-03T07:54:07;101522.44;;;6.63;100.00
54854;BME280;40747;49.480;8.658;2023-02-03T07:56:33;101511.94;;;6.65;100.00
54854;BME280;40747;49.480;8.658;2023-02-03T07:58:59;101513.72;;;6.63;100.00
54854;BME280;40747;49.480;8.658;2023-02-03T08:03:52;101513.72;;;6.64;100.00
54854;BME280;40747;49.480;8.658;2023-02-03T08:06:17;101522.50;;;6.76;100.00
54854;BME280;40747;49.480;8.658;2023-02-03T08:08:43;101530.34;;;6.74;100.00
54854;BME280;40747;49.480;8.658;2023-02-03T08:11:09;101534.72;;;6.77;100.00
54854;BME280;40747;49.480;8.658;2023-02-03T08:13:34;101534.69;;;6.73;100.00
54854;BME280;40747;49.480;8.658;2023-02-03T08:15:59;101526.84;;;6.75;100.00
54854;BME280;40747;49.480;8.658;2023-02-03T08:18:25;101532.09;;;6.80;100.00
54854;BME280;40747;49.480;8.658;2023-02-03T08:20:50;101524.25;;;6.77;100.00
54854;BME280;40747;49.480;8.658;2023-02-03T08:23:16;101536.41;;;6.70;100.00
54854;BME280;40747;49.480;8.658;2023-02-03T08:25:41;101540.84;;;6.85;100.00
54854;BME280;40747;49.480;8.658;2023-02-03T08:28:07;101545.16;;;6.75;100.00
54854;BME280;40747;49.480;8.658;2023-02-03T08:30:32;101546.13;;;6.94;100.00
54854;BME280;40747;49.480;8.658;2023-02-03T08:32:57;101538.28;;;6.99;100.00
54854;BME280;40747;49.480;8.658;2023-02-03T08:35:23;101534.81;;;7.01;100.00
54854;BME280;40747;49.480;8.658;2023-02-03T08:37:49;101538.28;;;6.99;100.00
54854;BME280;40747;49.480;8.658;2023-02-03T08:40:17;101529.53;;;6.95;100.00
54854;BME280;40747;49.480;8.658;2023-02-03T08:42:42;101525.19;;;6.96;100.00
54854;BME280;40747;49.480;8.658;2023-02-03T08:45:08;101534.84;;;7.09;100.00
54854;BME280;40747;49.480;8.658;2023-02-03T08:47:33;101525.22;;;7.07;100.00
54854;BME280;40747;49.480;8.658;2023-02-03T08:50:01;101520.88;;;7.09;100.00
54854;BME280;40747;49.480;8.658;2023-02-03T08:52:27;101526.13;;;7.15;100.00
54854;BME280;40747;49.480;8.658;2023-02-03T08:54:52;101534.91;;;7.29;100.00
54854;BME280;40747;49.480;8.658;2023-02-03T08:57:18;101531.41;;;7.33;100.00
54854;BME280;40747;49.480;8.658;2023-02-03T08:59:44;101521.78;;;7.31;100.00
54854;BME280;40747;49.480;8.658;2023-02-03T09:02:14;101513.03;;;7.26;100.00
54854;BME280;40747;49.480;8.658;2023-02-03T09:04:40;101520.91;;;7.24;100.00
54854;BME280;40747;49.480;8.658;2023-02-03T09:07:06;101522.66;;;7.31;100.00
54854;BME280;40747;49.480;8.658;2023-02-03T09:09:31;101527.03;;;7.31;100.00
54854;BME280;40747;49.480;8.658;2023-02-03T09:11:57;101521.81;;;7.37;100.00
54854;BME280;40747;49.480;8.658;2023-02-03T09:14:30;101524.44;;;7.37;100.00
54854;BME280;40747;49.480;8.658;2023-02-03T09:16:57;101524.41;;;7.42;100.00
54854;BME280;40747;49.480;8.658;2023-02-03T09:19:23;101510.47;;;7.49;100.00
54854;BME280;40747;49.480;8.658;2023-02-03T09:21:48;101517.41;;;7.39;100.00
54854;BME280;40747;49.480;8.658;2023-02-03T09:24:14;101511.31;;;7.35;100.00
54854;BME280;40747;49.480;8.658;2023-02-03T09:26:40;101514.84;;;7.47;100.00
54854;BME280;40747;49.480;8.658;2023-02-03T09:29:05;101509.59;;;7.41;100.00
54854;BME280;40747;49.480;8.658;2023-02-03T09:31:31;101517.47;;;7.64;100.00
54854;BME280;40747;49.480;8.658;2023-02-03T09:33:58;101521.81;;;7.71;100.00
54854;BME280;40747;49.480;8.658;2023-02-03T09:36:24;101512.22;;;7.68;100.00
54854;BME280;40747;49.480;8.658;2023-02-03T09:38:49;101509.59;;;7.67;100.00
54854;BME280;40747;49.480;8.658;2023-02-03T09:41:27;101489.47;;;7.49;100.00
54854;BME280;40747;49.480;8.658;2023-02-03T09:44:10;101509.59;;;7.59;100.00
54854;BME280;40747;49.480;8.658;2023-02-03T09:46:43;101492.97;;;7.38;100.00
54854;BME280;40747;49.480;8.658;2023-02-03T09:51:57;101486.84;;;7.50;100.00
54854;BME280;40747;49.480;8.658;2023-02-03T09:56:59;101506.97;;;7.56;100.00
54854;BME280;40747;49.480;8.658;2023-02-03T09:59:28;101492.09;;;7.57;100.00
54854;BME280;40747;49.480;8.658;2023-02-03T10:02:13;101502.63;;;7.52;100.00
54854;BME280;40747;49.480;8.658;2023-02-03T10:04:53;101506.97;;;7.65;100.00
54854;BME280;40747;49.480;8.658;2023-02-03T10:13:14;101526.19;;;7.74;100.00
54854;BME280;40747;49.480;8.658;2023-02-03T10:15:59;101529.72;;;7.65;100.00
54854;BME280;40747;49.480;8.658;2023-02-03T10:18:29;101528.81;;;7.72;100.00
54854;BME280;40747;49.480;8.658;2023-02-03T10:21:01;101533.19;;;7.75;100.00
54854;BME280;40747;49.480;8.658;2023-02-03T10:23:34;101531.47;;;7.86;100.00
54854;BME280;40747;49.480;8.658;2023-02-03T10:26:04;101525.34;;;7.81;100.00
54854;BME280;40747;49.480;8.658;2023-02-03T10:28:37;101522.72;;;7.87;100.00
54854;BME280;40747;49.480;8.658;2023-02-03T10:31:18;101522.72;;;7.90;100.00
54854;BME280;40747;49.480;8.658;2023-02-03T10:33:45;101528.84;;;7.92;100.00
54854;BME280;40747;49.480;8.658;2023-02-03T10:36:20;101531.47;;;7.98;100.00
54854;BME280;40747;49.480;8.658;2023-02-03T10:41:28;101519.22;;;7.99;100.00
54854;BME280;40747;49.480;8.658;2023-02-03T10:43:54;101503.50;;;7.94;100.00
54854;BME280;40747;49.480;8.658;2023-02-03T10:46:29;101506.97;;;7.96;100.00
54854;BME280;40747;49.480;8.658;2023-02-03T10:48:56;101486.88;;;7.92;100.00
54854;BME280;40747;49.480;8.658;2023-02-03T10:51:23;101488.63;;;7.87;100.00
54854;BME280;40747;49.480;8.658;2023-02-03T10:53:50;101492.13;;;7.72;100.00
54854;BME280;40747;49.480;8.658;2023-02-03T10:58:59;101478.97;;;7.44;100.00
54854;BME280;40747;49.480;8.658;2023-02-03T11:04:04;101477.22;;;7.42;100.00
54854;BME280;40747;49.480;8.658;2023-02-03T11:06:31;101473.75;;;7.32;100.00
54854;BME280;40747;49.480;8.658;2023-02-03T11:08:57;101467.63;;;7.30;100.00
54854;BME280;40747;49.480;8.658;2023-02-03T11:11:28;101430.94;;;7.27;100.00
54854;BME280;40747;49.480;8.658;2023-02-03T11:14:10;101450.16;;;7.36;100.00
54854;BME280;40747;49.480;8.658;2023-02-03T11:16:37;101455.38;;;7.29;100.00
54854;BME280;40747;49.480;8.658;2023-02-03T11:19:13;101466.75;;;7.38;100.00
54854;BME280;40747;49.480;8.658;2023-02-03T11:21:45;101465.91;;;7.46;100.00
54854;BME280;40747;49.480;8.658;2023-02-03T11:24:29;101458.91;;;7.37;100.00
54854;BME280;40747;49.480;8.658;2023-02-03T11:26:59;101463.25;;;7.43;100.00
54854;BME280;40747;49.480;8.658;2023-02-03T11:32:01;101464.09;;;7.12;100.00
54854;BME280;40747;49.480;8.658;2023-02-03T11:34:31;101479.84;;;7.23;100.00
54854;BME280;40747;49.480;8.658;2023-02-03T11:37:22;101485.94;;;7.13;100.00
54854;BME280;40747;49.480;8.658;2023-02-03T11:39:48;101476.34;;;7.29;100.00
54854;BME280;40747;49.480;8.658;2023-02-03T11:42:21;101488.56;;;7.11;100.00
54854;BME280;40747;49.480;8.658;2023-02-03T11:44:47;101498.19;;;7.15;100.00
54854;BME280;40747;49.480;8.658;2023-02-03T11:47:13;101492.09;;;7.30;100.00
54854;BME280;40747;49.480;8.658;2023-02-03T11:49:58;101484.22;;;7.24;100.00
54854;BME280;40747;49.480;8.658;2023-02-03T11:57:39;101487.69;;;7.08;100.00
54854;BME280;40747;49.480;8.658;2023-02-03T12:10:56;101449.28;;;7.44;100.00
54854;BME280;40747;49.480;8.658;2023-02-03T12:19:06;101435.28;;;7.74;100.00
54854;BME280;40747;49.480;8.658;2023-02-03T12:21:42;101440.53;;;7.80;100.00
54854;BME280;40747;49.480;8.658;2023-02-03T12:24:23;101428.28;;;7.92;99.31
54854;BME280;40747;49.480;8.658;2023-02-03T12:27:04;101411.69;;;7.82;100.00
54854;BME280;40747;49.480;8.658;2023-02-03T12:29:47;101416.06;;;7.83;99.90
54854;BME280;40747;49.480;8.658;2023-02-03T12:33:10;101412.53;;;7.92;99.02
54854;BME280;40747;49.480;8.658;2023-02-03T12:35:33;101424.78;;;7.96;99.82
54854;BME280;40747;49.480;8.658;2023-02-03T12:38:02;101423.91;;;7.80;98.95
54854;BME280;40747;49.480;8.658;2023-02-03T12:40:45;101376.72;;;7.66;98.66
54854;BME280;40747;49.480;8.658;2023-02-03T12:45:51;101412.47;;;8.06;96.72
54854;BME280;40747;49.480;8.658;2023-02-03T12:48:22;101403.78;;;7.90;98.25
54854;BME280;40747;49.480;8.658;2023-02-03T12:51:01;101402.88;;;8.04;98.08
54854;BME280;40747;49.480;8.658;2023-02-03T12:53:37;101398.47;;;8.13;97.76
54854;BME280;40747;49.480;8.658;2023-02-03T12:58:35;101395.06;;;7.83;99.27
54854;BME280;40747;49.480;8.658;2023-02-03T13:01:11;101381.88;;;8.01;99.33
54854;BME280;40747;49.480;8.658;2023-02-03T13:03:48;101374.91;;;8.02;98.70
54854;BME280;40747;49.480;8.658;2023-02-03T13:06:35;101352.97;;;8.17;98.67
54854;BME280;40747;49.480;8.658;2023-02-03T13:14:36;101363.44;;;8.26;97.75
54854;BME280;40747;49.480;8.658;2023-02-03T13:19:44;101363.41;;;8.32;96.80
54854;BME280;40747;49.480;8.658;2023-02-03T13:22:13;101364.34;;;8.20;97.51
54854;BME280;40747;49.480;8.658;2023-02-03T13:35:40;101380.97;;;8.12;97.43
54854;BME280;40747;49.480;8.658;2023-02-03T13:43:56;101360.94;;;7.97;99.01
54854;BME280;40747;49.480;8.658;2023-02-03T13:46:22;101360.91;;;8.00;97.87
54854;BME280;40747;49.480;8.658;2023-02-03T13:48:48;101346.88;;;8.15;97.42
54854;BME280;40747;49.480;8.658;2023-02-03T13:51:20;101349.53;;;8.07;97.92
54854;BME280;40747;49.480;8.658;2023-02-03T13:53:48;101348.66;;;8.00;98.25
54854;BME280;40747;49.480;8.658;2023-02-03T13:56:23;101346.88;;;8.10;98.05
54854;BME280;40747;49.480;8.658;2023-02-03T13:59:11;101352.13;;;8.09;97.95
54854;BME280;40747;49.480;8.658;2023-02-03T14:01:51;101363.50;;;8.08;97.76
54854;BME280;40747;49.480;8.658;2023-02-03T14:07:02;101381.00;;;8.02;97.54
54854;BME280;40747;49.480;8.658;2023-02-03T14:12:16;101382.78;;;8.03;98.03
54854;BME280;40747;49.480;8.658;2023-02-03T14:14:54;101386.25;;;8.06;97.53
54854;BME280;40747;49.480;8.658;2023-02-03T14:19:58;101390.59;;;8.13;96.83
54854;BME280;40747;49.480;8.658;2023-02-03T14:22:24;101384.47;;;8.17;96.88
54854;BME280;40747;49.480;8.658;2023-02-03T14:24:53;101379.19;;;8.28;96.82
54854;BME280;40747;49.480;8.658;2023-02-03T14:27:24;101385.31;;;8.22;97.20
54854;BME280;40747;49.480;8.658;2023-02-03T14:30:08;101361.69;;;8.25;97.50
54854;BME280;40747;49.480;8.658;2023-02-03T14:32:56;101366.91;;;8.28;97.23
54854;BME280;40747;49.480;8.658;2023-02-03T14:35:29;101374.81;;;8.22;98.36
54854;BME280;40747;49.480;8.658;2023-02-03T14:38:04;101374.81;;;8.27;97.27
54854;BME280;40747;49.480;8.658;2023-02-03T14:40:55;101383.63;;;8.09;97.45
54854;BME280;40747;49.480;8.658;2023-02-03T14:43:41;101367.84;;;8.12;98.29